Time;durP1;ratioP1;P1;durP2;ratioP2;P2;SDS_P1;SDS_P2;PMS_P1;PMS_P2;Temp;Humidity;BMP_temperature;BMP_pressure;BME280_temperature;BME280_humidity;BME280_pressure;Samples;Min_cycle;Max_cycle;Signal;HPM_P1;HPM_P2
2022/04/04 00:00:43;;;;;;;2.53;1.40;;;22.50;36.20;;;;;;5025697;28;20687;-50
2022/04/04 00:03:10;;;;;;;2.53;1.52;;;22.40;36.10;;;;;;5024050;28;20060;-50
2022/04/04 00:05:36;;;;;;;3.15;1.88;;;22.40;36.10;;;;;;5024917;28;20041;-51
2022/04/04 00:08:02;;;;;;;2.67;1.50;;;22.50;36.20;;;;;;5025088;28;20029;-50
2022/04/04 00:10:28;;;;;;;3.42;1.90;;;22.40;36.10;;;;;;5024775;28;20054;-50
2022/04/04 00:12:54;;;;;;;3.45;1.63;;;22.40;36.10;;;;;;5024544;28;20566;-50
2022/04/04 00:15:20;;;;;;;2.50;1.38;;;22.40;36.00;;;;;;5023210;28;20112;-50
2022/04/04 00:17:47;;;;;;;2.40;1.40;;;22.40;36.00;;;;;;5024677;28;20044;-50
2022/04/04 00:20:13;;;;;;;3.80;1.67;;;22.40;36.00;;;;;;5024493;28;20521;-50
2022/04/04 00:22:39;;;;;;;2.92;1.63;;;22.40;36.00;;;;;;5024056;28;20072;-51
2022/04/04 00:25:06;;;;;;;3.63;2.05;;;22.40;36.00;;;;;;5024034;28;20072;-50
2022/04/04 00:27:31;;;;;;;2.75;1.48;;;22.40;35.90;;;;;;5024656;28;20137;-50
2022/04/04 00:29:57;;;;;;;2.72;1.50;;;22.40;35.90;;;;;;5024199;28;20518;-50
2022/04/04 00:32:23;;;;;;;2.40;1.25;;;22.40;35.90;;;;;;5024005;28;20083;-50
2022/04/04 00:34:49;;;;;;;2.67;1.50;;;22.40;35.90;;;;;;5024784;28;20029;-50
2022/04/04 00:37:15;;;;;;;2.40;1.23;;;22.30;35.90;;;;;;5023284;28;20485;-51
2022/04/04 00:39:41;;;;;;;2.92;1.50;;;22.30;36.00;;;;;;5024818;28;20029;-51
2022/04/04 00:42:07;;;;;;;2.42;1.40;;;22.30;36.00;;;;;;5024047;28;20060;-51
2022/04/04 00:44:33;;;;;;;3.30;1.55;;;22.30;36.00;;;;;;5024118;28;20045;-50
2022/04/04 00:46:59;;;;;;;3.92;1.73;;;22.30;35.90;;;;;;5024016;28;20388;-50
2022/04/04 00:49:25;;;;;;;2.85;1.50;;;22.30;35.90;;;;;;5024368;28;20033;-51
2022/04/04 00:51:51;;;;;;;3.38;1.60;;;22.30;35.90;;;;;;5024161;28;20031;-51
2022/04/04 00:54:17;;;;;;;2.33;1.33;;;22.20;35.80;;;;;;5024345;28;20629;-51
2022/04/04 00:56:45;;;;;;;2.80;1.73;;;22.20;36.40;;;;;;5023143;28;20041;-51
2022/04/04 00:59:15;;;;;;;2.70;1.40;;;22.30;35.90;;;;;;5023955;28;20109;-50
2022/04/04 01:01:41;;;;;;;2.88;1.70;;;22.30;35.90;;;;;;5023605;28;20040;-50
2022/04/04 01:04:11;;;;;;;2.28;1.17;;;22.20;35.80;;;;;;5024921;28;20604;-50
2022/04/04 01:06:38;;;;;;;3.10;1.40;;;22.20;35.70;;;;;;5028342;28;20022;-50
2022/04/04 01:09:05;;;;;;;2.70;1.40;;;22.20;35.70;;;;;;5028035;28;20053;-50
2022/04/04 01:11:31;;;;;;;3.20;1.27;;;22.20;35.70;;;;;;5028099;28;20041;-51
2022/04/04 01:13:57;;;;;;;2.45;1.30;;;22.20;35.70;;;;;;5028297;28;20081;-51
2022/04/04 01:16:23;;;;;;;3.70;1.45;;;22.20;35.70;;;;;;5028144;28;20536;-50
2022/04/04 01:18:49;;;;;;;2.38;1.40;;;22.20;35.70;;;;;;5028047;28;20197;-50
2022/04/04 01:21:19;;;;;;;2.55;1.40;;;22.20;35.70;;;;;;5027919;28;20033;-50
2022/04/04 01:23:49;;;;;;;2.33;1.20;;;22.20;35.70;;;;;;5028319;28;20030;-50
2022/04/04 01:26:19;;;;;;;2.60;1.30;;;22.10;36.30;;;;;;5028618;28;20036;-51
2022/04/04 01:28:44;;;;;;;2.28;1.33;;;22.10;35.70;;;;;;5028149;28;20025;-51
2022/04/04 01:31:10;;;;;;;2.10;1.13;;;22.10;35.70;;;;;;5026729;28;20024;-52
2022/04/04 01:33:37;;;;;;;2.75;1.70;;;22.10;35.70;;;;;;5027824;28;20100;-51
2022/04/04 01:36:03;;;;;;;2.45;1.30;;;22.10;35.60;;;;;;5027678;28;20037;-50
2022/04/04 01:38:29;;;;;;;2.53;1.40;;;22.10;35.60;;;;;;5027730;28;20029;-52
2022/04/04 01:40:55;;;;;;;2.60;1.33;;;22.10;35.60;;;;;;5028168;28;20030;-51
2022/04/04 01:43:21;;;;;;;2.95;1.45;;;22.10;35.60;;;;;;5026183;28;20720;-50
2022/04/04 01:48:38;;;;;;;2.17;1.08;;;22.10;35.60;;;;;;5027706;28;20032;-51
2022/04/04 01:51:04;;;;;;;2.03;1.17;;;22.00;35.50;;;;;;5027500;28;20037;-50
2022/04/04 01:53:31;;;;;;;2.28;1.20;;;22.00;35.50;;;;;;5026745;28;20123;-50
2022/04/04 01:56:03;;;;;;;2.67;1.60;;;22.00;35.50;;;;;;5027431;28;20052;-50
2022/04/04 01:58:30;;;;;;;1.50;0.90;;;22.00;35.50;;;;;;5026966;28;20033;-50
2022/04/04 02:00:57;;;;;;;1.88;1.08;;;22.00;35.50;;;;;;5027046;28;20043;-50
2022/04/04 02:03:24;;;;;;;2.10;1.30;;;22.00;35.50;;;;;;5026035;28;20083;-51
2022/04/04 02:05:50;;;;;;;2.33;1.40;;;22.00;35.50;;;;;;5026685;28;20032;-50
2022/04/04 02:08:15;;;;;;;2.25;1.30;;;22.00;35.50;;;;;;5026644;28;20022;-51
2022/04/04 02:10:41;;;;;;;2.60;1.33;;;21.90;35.50;;;;;;5027288;28;20587;-50
2022/04/04 02:13:07;;;;;;;2.78;1.45;;;22.00;35.50;;;;;;5026777;28;20029;-51
2022/04/04 02:15:33;;;;;;;2.10;1.13;;;21.90;35.50;;;;;;5026970;28;20040;-51
2022/04/04 02:17:58;;;;;;;2.38;1.25;;;21.90;35.50;;;;;;5027141;28;20087;-50
2022/04/04 02:20:24;;;;;;;2.20;1.17;;;21.90;35.50;;;;;;5026790;28;20036;-50
2022/04/04 02:22:50;;;;;;;2.60;1.40;;;21.90;36.10;;;;;;5026331;28;20451;-51
2022/04/04 02:25:16;;;;;;;2.10;1.20;;;21.90;35.50;;;;;;5026271;28;20053;-51
2022/04/04 02:27:41;;;;;;;2.92;1.52;;;21.90;35.50;;;;;;5025990;28;20034;-51
2022/04/04 02:30:07;;;;;;;1.83;1.10;;;21.90;35.40;;;;;;5025977;28;20037;-51
2022/04/04 02:32:33;;;;;;;2.10;1.10;;;21.90;35.50;;;;;;5026211;28;20034;-50
2022/04/04 02:34:59;;;;;;;2.10;1.23;;;21.90;35.40;;;;;;5026644;28;20100;-50
2022/04/04 02:37:25;;;;;;;1.73;1.05;;;21.90;35.40;;;;;;5026639;28;20151;-51
2022/04/04 02:39:51;;;;;;;2.58;1.30;;;21.90;35.40;;;;;;5026756;28;20034;-50
2022/04/04 02:42:17;;;;;;;2.13;1.20;;;21.80;35.40;;;;;;5024766;28;20041;-51
2022/04/04 02:44:42;;;;;;;2.42;1.30;;;21.90;35.40;;;;;;5026425;28;20045;-50
2022/04/04 02:47:08;;;;;;;2.65;1.10;;;21.80;35.40;;;;;;5024748;28;20030;-51
2022/04/04 02:49:34;;;;;;;2.30;1.10;;;21.80;35.30;;;;;;5026508;28;20713;-51
2022/04/04 02:51:59;;;;;;;2.72;1.30;;;21.80;35.30;;;;;;5025714;28;20025;-50
2022/04/04 02:54:25;;;;;;;1.92;1.15;;;21.80;35.30;;;;;;5026317;28;20088;-50
2022/04/04 02:56:52;;;;;;;2.85;1.65;;;21.80;35.30;;;;;;5026285;28;20057;-50
2022/04/04 02:59:18;;;;;;;1.92;1.05;;;21.80;35.30;;;;;;5024431;28;20121;-50
2022/04/04 03:01:48;;;;;;;2.03;1.23;;;21.80;35.30;;;;;;5026006;28;20208;-50
2022/04/04 03:04:17;;;;;;;2.40;1.20;;;21.80;35.30;;;;;;5025314;28;20029;-50
2022/04/04 03:06:44;;;;;;;2.80;1.10;;;21.80;35.30;;;;;;5025858;28;20033;-50
2022/04/04 03:09:10;;;;;;;2.08;1.10;;;21.80;35.30;;;;;;5024675;28;20517;-50
2022/04/04 03:11:36;;;;;;;1.58;0.90;;;21.80;35.30;;;;;;5025443;28;20104;-51
2022/04/04 03:14:03;;;;;;;2.42;1.35;;;21.80;35.30;;;;;;5025564;28;20124;-50
2022/04/04 03:16:29;;;;;;;2.10;1.20;;;21.80;35.30;;;;;;5026370;28;20041;-50
2022/04/04 03:18:55;;;;;;;2.28;1.17;;;21.70;35.30;;;;;;5024295;28;20036;-50
2022/04/04 03:21:22;;;;;;;2.00;1.17;;;21.70;35.30;;;;;;5025540;28;20025;-50
2022/04/04 03:23:48;;;;;;;2.20;1.17;;;21.70;35.20;;;;;;5026270;28;20512;-50
2022/04/04 03:26:15;;;;;;;2.67;1.23;;;21.70;35.20;;;;;;5024189;28;20038;-50
2022/04/04 03:28:41;;;;;;;2.00;1.20;;;21.70;35.20;;;;;;5025294;28;20025;-51
2022/04/04 03:31:08;;;;;;;2.53;1.25;;;21.70;35.20;;;;;;5025336;28;20109;-51
2022/04/04 03:33:36;;;;;;;2.10;1.27;;;21.70;35.20;;;;;;5024875;28;20026;-51
2022/04/04 03:36:02;;;;;;;2.10;1.13;;;21.70;35.20;;;;;;5025012;28;20030;-50
2022/04/04 03:38:28;;;;;;;2.08;1.08;;;21.70;35.10;;;;;;5025200;28;20029;-50
2022/04/04 03:40:54;;;;;;;2.35;1.33;;;21.70;35.10;;;;;;5024841;28;20029;-50
2022/04/04 03:43:21;;;;;;;2.67;1.15;;;21.60;35.10;;;;;;5025033;28;20078;-51
2022/04/04 03:45:47;;;;;;;2.20;1.17;;;21.60;35.10;;;;;;5025069;28;20525;-50
2022/04/04 03:48:13;;;;;;;1.90;1.10;;;21.60;35.10;;;;;;5025058;28;20029;-50
2022/04/04 03:50:39;;;;;;;2.72;1.45;;;21.70;35.10;;;;;;5024191;28;20025;-50
2022/04/04 03:53:05;;;;;;;2.20;1.10;;;21.60;35.00;;;;;;5024550;28;20084;-49
2022/04/04 03:55:35;;;;;;;2.20;1.25;;;21.60;35.00;;;;;;5024884;28;20393;-50
2022/04/04 03:58:01;;;;;;;2.03;1.10;;;21.60;35.00;;;;;;5023042;28;20025;-49
2022/04/04 04:00:27;;;;;;;2.38;1.42;;;21.60;35.00;;;;;;5024923;28;20026;-50
2022/04/04 04:02:54;;;;;;;2.28;1.10;;;21.60;35.00;;;;;;5024950;28;20108;-50
2022/04/04 04:05:21;;;;;;;2.30;1.20;;;21.60;35.00;;;;;;5024332;28;20106;-51
2022/04/04 04:07:47;;;;;;;2.08;0.98;;;21.60;35.00;;;;;;5024169;28;20029;-51
2022/04/04 04:10:13;;;;;;;2.90;1.50;;;21.60;35.00;;;;;;5024937;28;20504;-50
2022/04/04 04:12:43;;;;;;;1.83;1.10;;;21.60;35.00;;;;;;5024904;28;20022;-50
2022/04/04 04:15:13;;;;;;;2.40;1.30;;;21.60;35.00;;;;;;5024460;28;20022;-50
2022/04/04 04:17:39;;;;;;;2.85;1.38;;;21.60;35.10;;;;;;5024587;28;20033;-50
2022/04/04 04:22:58;;;;;;;2.03;1.13;;;21.60;35.10;;;;;;5024598;28;20048;-50
2022/04/04 04:25:27;;;;;;;;;;;21.60;35.10;;;;;;5025181;28;20034;-51
2022/04/04 04:27:53;;;;;;;1.45;0.80;;;21.60;35.10;;;;;;5023557;28;19913;-50
2022/04/04 04:30:19;;;;;;;1.65;1.00;;;21.70;35.20;;;;;;5024229;28;20029;-51
2022/04/04 04:32:48;;;;;;;1.48;1.00;;;21.70;35.20;;;;;;5024500;28;20126;-50
2022/04/04 04:35:15;;;;;;;2.40;1.08;;;21.70;35.30;;;;;;5024163;28;20052;-50
2022/04/04 04:37:42;;;;;;;1.95;1.17;;;21.70;35.30;;;;;;5024322;28;20644;-50
2022/04/04 04:40:09;;;;;;;2.03;0.80;;;21.80;35.20;;;;;;5023747;28;20079;-49
2022/04/04 04:42:36;;;;;;;2.10;1.10;;;21.80;35.20;;;;;;5023733;28;20029;-49
2022/04/04 04:45:04;;;;;;;1.98;1.02;;;21.90;35.20;;;;;;5022717;28;20120;-50
2022/04/04 04:47:30;;;;;;;1.60;0.90;;;21.90;35.10;;;;;;5023765;28;20029;-50
2022/04/04 04:49:57;;;;;;;1.77;0.95;;;22.00;35.00;;;;;;5024698;28;20021;-50
2022/04/04 04:52:24;;;;;;;1.60;0.90;;;22.10;35.00;;;;;;5023509;28;20017;-50
2022/04/04 04:54:50;;;;;;;1.27;0.85;;;22.10;34.90;;;;;;5024279;28;20033;-50
2022/04/04 04:57:16;;;;;;;2.38;0.90;;;22.20;34.80;;;;;;5023398;28;20034;-50
2022/04/04 04:59:42;;;;;;;2.55;1.25;;;22.30;34.80;;;;;;5023529;28;20560;-51
2022/04/04 05:02:08;;;;;;;2.05;1.10;;;22.30;34.70;;;;;;5022734;28;20028;-51
2022/04/04 05:04:34;;;;;;;1.80;1.00;;;22.40;34.50;;;;;;5022054;28;20029;-50
2022/04/04 05:06:59;;;;;;;1.83;0.90;;;22.50;34.50;;;;;;5021111;28;20038;-50
2022/04/04 05:09:25;;;;;;;2.08;1.10;;;22.60;34.40;;;;;;5022649;28;20021;-50
2022/04/04 05:11:51;;;;;;;3.75;0.93;;;22.60;34.50;;;;;;5022932;28;20025;-50
2022/04/04 05:14:17;;;;;;;2.72;0.90;;;22.70;34.60;;;;;;5022342;28;20030;-50
2022/04/04 05:16:46;;;;;;;2.45;1.08;;;22.80;34.60;;;;;;5022210;28;20065;-50
2022/04/04 05:19:13;;;;;;;2.33;1.00;;;22.80;34.80;;;;;;5020439;28;20028;-50
2022/04/04 05:21:40;;;;;;;1.90;1.00;;;22.90;34.80;;;;;;5023491;28;20725;-51
2022/04/04 05:24:07;;;;;;;2.70;1.30;;;22.90;34.90;;;;;;5023643;28;20025;-50
2022/04/04 05:26:33;;;;;;;3.08;0.93;;;23.00;34.80;;;;;;5023292;28;20026;-51
2022/04/04 05:28:59;;;;;;;2.25;0.90;;;23.00;35.30;;;;;;5023105;28;20545;-51
2022/04/04 05:31:25;;;;;;;3.70;1.10;;;23.10;34.60;;;;;;5021369;28;20037;-50
2022/04/04 05:33:51;;;;;;;1.92;1.23;;;23.10;34.60;;;;;;5011748;28;20546;-51
2022/04/04 05:36:20;;;;;;;2.85;1.27;;;23.20;34.50;;;;;;5001151;28;20494;-50
2022/04/04 05:38:48;;;;;;;1.67;0.93;;;23.20;34.40;;;;;;5005304;28;20929;-51
2022/04/04 05:41:14;;;;;;;2.35;1.05;;;23.20;34.40;;;;;;5008757;28;20030;-51
2022/04/04 05:43:41;;;;;;;3.00;1.10;;;23.30;34.40;;;;;;5008331;28;20393;-50
2022/04/04 05:46:07;;;;;;;1.90;0.88;;;23.30;34.30;;;;;;5013679;28;20037;-50
2022/04/04 05:48:34;;;;;;;2.00;0.88;;;23.40;34.20;;;;;;5011473;28;20514;-51
2022/04/04 05:51:00;;;;;;;1.77;0.80;;;23.40;34.10;;;;;;5017510;28;20069;-50
2022/04/04 05:53:25;;;;;;;1.88;0.80;;;23.40;34.00;;;;;;5014366;28;21133;-50
2022/04/04 05:55:51;;;;;;;2.38;1.05;;;23.40;33.90;;;;;;5021269;28;20093;-50
2022/04/04 05:58:17;;;;;;;1.92;0.98;;;23.50;33.90;;;;;;5017219;28;20022;-51
2022/04/04 06:00:43;;;;;;;1.80;0.80;;;23.50;33.80;;;;;;5014528;28;20029;-50
2022/04/04 06:03:08;;;;;;;1.33;0.80;;;23.50;33.80;;;;;;5016273;28;20036;-50
2022/04/04 06:05:35;;;;;;;2.30;1.10;;;23.60;33.70;;;;;;5017198;28;20084;-51
2022/04/04 06:08:01;;;;;;;0.85;0.63;;;23.60;33.50;;;;;;5019037;28;20858;-50
2022/04/04 06:10:27;;;;;;;2.40;1.00;;;23.60;33.50;;;;;;5015855;28;20040;-52
2022/04/04 06:12:53;;;;;;;1.83;0.77;;;23.60;33.50;;;;;;5016087;28;20022;-50
2022/04/04 06:15:19;;;;;;;2.42;0.80;;;23.60;33.40;;;;;;5017981;28;20508;-51
2022/04/04 06:17:46;;;;;;;2.83;1.00;;;23.70;33.50;;;;;;5020882;28;20797;-51
2022/04/04 06:20:13;;;;;;;4.15;1.05;;;23.70;33.40;;;;;;5016977;28;20026;-50
2022/04/04 06:22:41;;;;;;;2.70;1.08;;;23.70;33.30;;;;;;5015532;28;20041;-49
2022/04/04 06:25:09;;;;;;;6.97;1.40;;;23.60;33.40;;;;;;5018070;28;20033;-50
2022/04/04 06:27:36;;;;;;;4.20;1.38;;;23.70;33.40;;;;;;5020454;28;20025;-50
2022/04/04 06:30:05;;;;;;;4.10;1.00;;;23.70;33.20;;;;;;5021311;28;20055;-50
2022/04/04 06:32:31;;;;;;;1.88;0.82;;;23.70;33.20;;;;;;5020521;28;20030;-51
2022/04/04 06:34:57;;;;;;;3.58;1.15;;;23.70;33.20;;;;;;5017388;28;20600;-50
2022/04/04 06:37:23;;;;;;;2.92;0.98;;;23.70;33.20;;;;;;5014879;28;20120;-50
2022/04/04 06:39:49;;;;;;;4.65;1.30;;;23.70;33.20;;;;;;5011058;28;20029;-51
2022/04/04 06:42:14;;;;;;;2.17;0.98;;;23.70;33.20;;;;;;5010653;28;20053;-50
2022/04/04 06:44:42;;;;;;;3.40;1.10;;;23.70;33.30;;;;;;5020283;28;20033;-51
2022/04/04 06:47:11;;;;;;;2.88;1.10;;;23.70;33.30;;;;;;5021918;28;20668;-51
2022/04/04 06:49:37;;;;;;;2.17;1.05;;;23.70;33.40;;;;;;5018717;28;20037;-51
2022/04/04 06:52:03;;;;;;;2.25;1.10;;;23.70;33.40;;;;;;5021608;28;20394;-51
2022/04/04 06:54:28;;;;;;;3.05;1.35;;;23.80;33.40;;;;;;5016827;28;20060;-50
2022/04/04 06:56:55;;;;;;;2.60;1.20;;;23.80;33.40;;;;;;5014267;28;20030;-51
2022/04/04 06:59:22;;;;;;;2.63;1.02;;;23.70;33.40;;;;;;5015739;28;20038;-50
2022/04/04 07:01:49;;;;;;;3.90;0.90;;;23.70;33.50;;;;;;5015054;28;20030;-50
2022/04/04 07:04:16;;;;;;;3.28;1.30;;;23.70;33.50;;;;;;5010247;28;20037;-50
2022/04/04 07:06:42;;;;;;;2.67;0.90;;;23.70;33.50;;;;;;5010940;28;20449;-50
2022/04/04 07:09:08;;;;;;;2.63;0.93;;;23.70;33.50;;;;;;5018599;28;20378;-51
2022/04/04 07:11:35;;;;;;;2.38;0.90;;;23.70;33.50;;;;;;5019203;28;20101;-50
2022/04/04 07:14:02;;;;;;;1.70;0.90;;;23.70;33.50;;;;;;5019712;28;20066;-50
2022/04/04 07:16:29;;;;;;;1.75;0.80;;;23.70;33.50;;;;;;5020930;28;20093;-50
2022/04/04 07:18:54;;;;;;;1.52;0.90;;;23.70;33.60;;;;;;5021020;28;20025;-50
2022/04/04 07:21:22;;;;;;;2.70;1.05;;;23.70;33.70;;;;;;5011553;28;20032;-50
2022/04/04 07:23:49;;;;;;;3.40;1.50;;;23.70;33.70;;;;;;5013691;28;20118;-51
2022/04/04 07:26:19;;;;;;;3.22;1.40;;;23.70;34.00;;;;;;5025542;28;20083;-51
2022/04/04 07:28:46;;;;;;;3.88;1.13;;;23.70;33.90;;;;;;5023712;28;20041;-50
2022/04/04 07:31:14;;;;;;;3.92;1.40;;;23.70;33.90;;;;;;5025153;28;20100;-50
2022/04/04 07:33:39;;;;;;;3.60;1.50;;;23.70;33.90;;;;;;5024890;28;20026;-50
2022/04/04 07:36:05;;;;;;;3.10;1.38;;;23.70;33.90;;;;;;5025312;28;20080;-50
2022/04/04 07:38:32;;;;;;;3.92;1.48;;;23.70;33.90;;;;;;5025517;28;20060;-51
2022/04/04 07:40:57;;;;;;;4.32;1.38;;;23.70;33.80;;;;;;5025130;28;20035;-51
2022/04/04 07:43:23;;;;;;;2.95;1.00;;;23.70;33.90;;;;;;5025114;28;20725;-50
2022/04/04 07:45:49;;;;;;;3.35;1.13;;;23.70;33.90;;;;;;5024371;28;20041;-51
2022/04/04 07:48:15;;;;;;;4.15;1.33;;;23.70;33.90;;;;;;5024920;28;20025;-50
2022/04/04 07:50:43;;;;;;;3.33;1.27;;;23.60;33.70;;;;;;5025510;28;20034;-51
2022/04/04 07:53:09;;;;;;;2.85;1.20;;;23.70;33.80;;;;;;5025048;28;20036;-51
2022/04/04 07:55:36;;;;;;;2.80;1.30;;;23.70;33.70;;;;;;5025790;28;20017;-51
2022/04/04 07:58:03;;;;;;;3.20;1.40;;;23.70;33.70;;;;;;5025383;28;20028;-51
2022/04/04 08:00:29;;;;;;;2.90;1.20;;;23.60;33.60;;;;;;5023526;28;20049;-51
2022/04/04 08:02:55;;;;;;;4.15;1.13;;;23.70;33.70;;;;;;5023698;28;20072;-52
2022/04/04 08:05:21;;;;;;;3.35;1.10;;;23.70;33.70;;;;;;5024222;28;20091;-51
2022/04/04 08:07:48;;;;;;;2.63;0.95;;;23.60;33.50;;;;;;5023679;28;20029;-51
2022/04/04 08:10:15;;;;;;;3.45;1.25;;;23.70;33.60;;;;;;5024424;28;20493;-51
2022/04/04 08:12:42;;;;;;;3.45;1.08;;;23.60;33.50;;;;;;5023574;28;20069;-51
2022/04/04 08:15:09;;;;;;;3.92;1.13;;;23.70;33.50;;;;;;5024348;28;20716;-51
2022/04/04 08:17:35;;;;;;;2.28;1.05;;;23.70;33.50;;;;;;5024428;28;20102;-51
2022/04/04 08:20:01;;;;;;;3.20;1.20;;;23.70;33.40;;;;;;5024719;28;20034;-51
2022/04/04 08:22:27;;;;;;;2.45;1.20;;;23.70;33.30;;;;;;5022552;28;20029;-51
2022/04/04 08:24:52;;;;;;;2.20;0.88;;;23.70;33.30;;;;;;5024067;28;20075;-50
2022/04/04 08:27:18;;;;;;;2.50;0.98;;;23.70;33.30;;;;;;5024542;28;20028;-50
2022/04/04 08:29:44;;;;;;;2.08;0.95;;;23.70;33.30;;;;;;5022385;28;20096;-51
2022/04/04 08:32:10;;;;;;;2.78;1.15;;;23.80;33.30;;;;;;5024140;28;20618;-51
2022/04/04 08:34:36;;;;;;;3.17;0.88;;;23.70;33.20;;;;;;5023756;28;20038;-50
2022/04/04 08:37:02;;;;;;;2.42;0.82;;;23.70;33.20;;;;;;5023897;28;20037;-51
2022/04/04 08:39:28;;;;;;;2.30;1.02;;;23.70;33.20;;;;;;5024213;28;20025;-50
2022/04/04 08:41:58;;;;;;;1.27;0.73;;;23.70;33.10;;;;;;5024276;28;20025;-50
2022/04/04 08:44:24;;;;;;;1.50;0.70;;;23.70;33.20;;;;;;5024023;28;20408;-51
2022/04/04 08:46:51;;;;;;;1.92;0.93;;;23.80;33.20;;;;;;5023079;28;20196;-49
2022/04/04 08:49:17;;;;;;;1.85;0.70;;;23.70;33.10;;;;;;5024028;28;20025;-50
2022/04/04 08:51:43;;;;;;;1.80;0.75;;;23.70;33.10;;;;;;5023635;28;20136;-50
2022/04/04 08:54:09;;;;;;;1.98;0.98;;;23.70;33.10;;;;;;5023328;28;20576;-51
2022/04/04 08:56:34;;;;;;;2.15;0.80;;;23.70;33.10;;;;;;5024138;28;20112;-51
2022/04/04 08:59:00;;;;;;;1.65;0.75;;;23.70;33.10;;;;;;5023506;28;20508;-50
2022/04/04 09:01:28;;;;;;;1.45;0.70;;;23.70;33.00;;;;;;5023567;28;20050;-50
2022/04/04 09:04:06;;;;;;;1.58;0.80;;;23.70;33.00;;;;;;5023993;28;20563;-51
2022/04/04 09:06:53;;;;;;;1.65;0.68;;;23.70;33.00;;;;;;5022057;28;20120;-51
2022/04/04 09:09:44;;;;;;;2.22;0.80;;;23.80;33.00;;;;;;5023728;28;20022;-51
2022/04/04 09:12:15;;;;;;;1.30;0.60;;;23.70;32.90;;;;;;5022626;28;20506;-51
2022/04/04 09:14:45;;;;;;;3.75;0.80;;;23.70;33.00;;;;;;5023417;28;20115;-50
2022/04/04 09:17:12;;;;;;;1.88;0.60;;;23.70;32.90;;;;;;5023386;28;20033;-51
2022/04/04 09:19:38;;;;;;;1.25;0.57;;;23.70;32.90;;;;;;5023925;28;20037;-51
2022/04/04 09:22:06;;;;;;;2.00;0.70;;;23.70;32.80;;;;;;5021886;28;20056;-51
2022/04/04 09:24:48;;;;;;;2.63;0.70;;;23.70;32.90;;;;;;5023640;28;20034;-51
2022/04/04 09:27:26;;;;;;;2.33;0.70;;;23.80;32.80;;;;;;5027176;28;20142;-51
2022/04/04 09:30:00;;;;;;;2.80;0.90;;;23.80;32.80;;;;;;5026983;28;20414;-51
2022/04/04 09:32:36;;;;;;;2.75;0.70;;;23.70;32.80;;;;;;5026938;28;20079;-51
2022/04/04 09:35:08;;;;;;;1.80;0.65;;;23.80;32.80;;;;;;5026876;28;20048;-51
2022/04/04 09:37:35;;;;;;;;;;;23.80;32.70;;;;;;5027482;28;20033;-50
2022/04/04 09:40:07;;;;;;;1.50;0.60;;;23.80;32.80;;;;;;5026988;28;19943;-51
2022/04/04 09:42:34;;;;;;;1.45;0.60;;;23.70;32.70;;;;;;5026982;28;20135;-51
2022/04/04 09:45:10;;;;;;;1.65;0.80;;;23.80;32.80;;;;;;5027033;28;20174;-50
2022/04/04 09:47:56;;;;;;;2.05;0.63;;;23.80;32.70;;;;;;5026016;28;20588;-50
2022/04/04 09:50:31;;;;;;;1.50;0.73;;;23.80;32.80;;;;;;5026666;28;20025;-50
2022/04/04 09:52:59;;;;;;;1.38;0.73;;;23.80;32.80;;;;;;5026812;28;20651;-50
2022/04/04 09:55:29;;;;;;;2.20;0.68;;;23.80;32.80;;;;;;5026757;28;20085;-51
2022/04/04 09:57:57;;;;;;;1.45;0.47;;;23.80;32.80;;;;;;5009304;28;20033;-51
2022/04/04 10:00:24;;;;;;;1.40;0.60;;;23.80;32.80;;;;;;5024649;28;20045;-51
2022/04/04 10:02:53;;;;;;;1.15;0.55;;;23.80;32.80;;;;;;5025574;28;20446;-51
2022/04/04 10:05:19;;;;;;;1.08;0.55;;;23.80;32.70;;;;;;5026055;28;20044;-51
2022/04/04 10:07:46;;;;;;;0.80;0.50;;;23.80;32.70;;;;;;5026934;28;20755;-51
2022/04/04 10:10:12;;;;;;;1.75;0.73;;;23.80;32.60;;;;;;5026426;28;20091;-51
2022/04/04 10:12:39;;;;;;;1.27;0.60;;;23.80;32.70;;;;;;5026245;28;20386;-51
2022/04/04 10:15:07;;;;;;;1.35;0.70;;;23.80;32.70;;;;;;5026314;28;20029;-52
2022/04/04 10:17:33;;;;;;;1.52;0.60;;;23.80;32.50;;;;;;5026083;28;20026;-52
2022/04/04 10:20:01;;;;;;;2.28;0.63;;;23.80;32.60;;;;;;5026067;28;20040;-51
2022/04/04 10:22:27;;;;;;;1.92;0.70;;;23.80;32.60;;;;;;5024606;28;20084;-51
2022/04/04 10:24:56;;;;;;;1.27;0.50;;;23.80;33.20;;;;;;5026361;28;20057;-51
2022/04/04 10:27:22;;;;;;;1.30;0.70;;;23.80;32.60;;;;;;5026361;28;20117;-51
2022/04/04 10:29:48;;;;;;;1.48;0.55;;;23.80;32.70;;;;;;5025506;28;20029;-51
2022/04/04 10:32:25;;;;;;;2.50;0.90;;;23.80;32.60;;;;;;5024339;28;20032;-50
2022/04/04 10:34:51;;;;;;;1.23;0.60;;;23.80;32.60;;;;;;5025052;28;20025;-51
2022/04/04 10:37:19;;;;;;;1.35;0.60;;;23.90;32.70;;;;;;5024774;28;20072;-51
2022/04/04 10:39:48;;;;;;;1.65;0.57;;;23.90;32.70;;;;;;5026260;28;20051;-51
2022/04/04 10:42:43;;;;;;;1.35;0.50;;;23.90;32.70;;;;;;5025974;28;20037;-50
2022/04/04 10:45:13;;;;;;;2.00;0.70;;;23.90;32.70;;;;;;5012841;28;20052;-50
2022/04/04 10:47:44;;;;;;;2.17;0.60;;;23.80;32.70;;;;;;5025666;28;20039;-50
2022/04/04 10:50:30;;;;;;;1.63;0.68;;;23.90;32.70;;;;;;5024726;28;20125;-51
2022/04/04 10:53:00;;;;;;;0.82;0.40;;;23.90;32.60;;;;;;5025222;28;20565;-51
2022/04/04 10:55:38;;;;;;;1.15;0.50;;;23.90;32.70;;;;;;5025679;28;20485;-51
2022/04/04 10:58:10;;;;;;;1.40;0.65;;;23.90;32.60;;;;;;5025803;28;20041;-51
2022/04/04 11:01:03;;;;;;;2.05;0.50;;;23.90;32.60;;;;;;5024402;28;20159;-51
2022/04/04 11:03:40;;;;;;;0.95;0.57;;;23.90;32.60;;;;;;5024184;28;20028;-51
2022/04/04 11:09:11;;;;;;;1.02;0.50;;;23.80;32.50;;;;;;5025578;28;20037;-51
2022/04/04 11:11:50;;;;;;;2.08;0.90;;;23.80;32.50;;;;;;5025387;28;20029;-51
2022/04/04 11:14:39;;;;;;;1.42;0.70;;;23.80;32.50;;;;;;5025711;28;20029;-51
2022/04/04 11:17:08;;;;;;;1.38;0.60;;;23.90;32.60;;;;;;5014536;28;20033;-51
2022/04/04 11:19:48;;;;;;;1.55;0.80;;;23.90;32.60;;;;;;5024826;28;20087;-52
2022/04/04 11:22:22;;;;;;;1.70;0.60;;;23.90;32.60;;;;;;5025520;28;20103;-51
2022/04/04 11:24:58;;;;;;;1.08;0.50;;;23.90;32.60;;;;;;5025506;28;20033;-52
2022/04/04 11:27:28;;;;;;;1.42;0.60;;;23.80;32.60;;;;;;5025286;28;20033;-51
2022/04/04 11:29:54;;;;;;;1.42;0.68;;;23.90;32.60;;;;;;5024950;28;20056;-51
2022/04/04 11:32:33;;;;;;;1.13;0.50;;;23.90;32.50;;;;;;5025158;28;20079;-51
2022/04/04 11:35:01;;;;;;;0.68;0.40;;;23.90;32.60;;;;;;5025162;28;20029;-51
2022/04/04 11:37:29;;;;;;;1.40;0.60;;;23.90;32.50;;;;;;5024128;28;20026;-51
2022/04/04 11:40:03;;;;;;;1.10;0.60;;;23.90;32.50;;;;;;5025607;28;20531;-50
2022/04/04 11:42:30;;;;;;;0.80;0.50;;;23.90;32.50;;;;;;5024769;28;20029;-49
2022/04/04 11:44:58;;;;;;;1.45;0.60;;;23.90;32.60;;;;;;5024747;28;20037;-51
2022/04/04 11:47:24;;;;;;;1.35;0.50;;;23.90;32.50;;;;;;5024546;28;20041;-49
2022/04/04 11:49:52;;;;;;;0.88;0.45;;;23.90;32.40;;;;;;5024488;28;20017;-50
2022/04/04 11:52:19;;;;;;;1.50;0.50;;;23.90;32.40;;;;;;5024175;28;20163;-50
2022/04/04 11:54:50;;;;;;;1.98;0.80;;;23.90;32.50;;;;;;5023963;28;20481;-50
2022/04/04 11:57:17;;;;;;;0.85;0.50;;;24.00;32.40;;;;;;5025145;28;20048;-51
2022/04/04 11:59:45;;;;;;;1.48;0.60;;;24.00;32.50;;;;;;5024218;28;20041;-51
2022/04/04 12:02:13;;;;;;;1.83;0.75;;;24.00;32.40;;;;;;5024836;28;20026;-51
2022/04/04 12:04:40;;;;;;;1.13;0.40;;;24.00;32.50;;;;;;5024867;28;20033;-51
2022/04/04 12:07:09;;;;;;;1.60;0.70;;;24.00;32.60;;;;;;5023783;28;20021;-51
2022/04/04 12:09:36;;;;;;;2.10;1.27;;;24.00;32.60;;;;;;5024489;28;20021;-51
2022/04/04 12:12:06;;;;;;;1.33;0.45;;;24.00;32.60;;;;;;5024368;28;20036;-51
2022/04/04 12:14:33;;;;;;;1.33;0.57;;;24.00;32.60;;;;;;5024849;28;20017;-51
2022/04/04 12:16:59;;;;;;;1.42;0.68;;;24.00;33.20;;;;;;5023402;28;20032;-51
2022/04/04 12:19:25;;;;;;;1.60;0.70;;;24.10;32.60;;;;;;5023766;28;20396;-51
2022/04/04 12:21:52;;;;;;;1.75;0.50;;;24.10;32.60;;;;;;5024103;28;20029;-50
2022/04/04 12:27:09;;;;;;;0.95;0.55;;;24.10;32.30;;;;;;5024649;28;20588;-51
2022/04/04 12:29:40;;;;;;;1.13;0.50;;;24.20;32.30;;;;;;5024428;28;20314;-50
2022/04/04 12:32:16;;;;;;;1.55;0.55;;;24.20;32.20;;;;;;5024317;28;20029;-51
2022/04/04 12:35:14;;;;;;;1.98;0.68;;;24.20;32.30;;;;;;5023799;28;20112;-51
2022/04/04 12:37:43;;;;;;;1.48;0.50;;;24.20;32.20;;;;;;4971174;28;20594;-51
2022/04/04 12:40:15;;;;;;;1.70;0.60;;;24.20;32.20;;;;;;5014090;28;20528;-51
2022/04/04 12:42:42;;;;;;;1.33;0.52;;;24.20;32.20;;;;;;5024111;28;20033;-51
2022/04/04 12:45:08;;;;;;;1.10;0.40;;;24.20;32.10;;;;;;5022691;28;20038;-50
2022/04/04 12:47:34;;;;;;;1.33;0.60;;;24.20;32.00;;;;;;5024403;28;20052;-51
2022/04/04 12:50:14;;;;;;;1.20;0.50;;;24.30;32.20;;;;;;5024346;28;20517;-51
2022/04/04 12:52:59;;;;;;;1.23;0.50;;;24.30;32.10;;;;;;5023983;28;20029;-51
2022/04/04 12:55:25;;;;;;;1.30;0.60;;;24.30;32.00;;;;;;5024563;28;20033;-51
2022/04/04 12:57:51;;;;;;;1.00;0.50;;;24.30;32.20;;;;;;5024391;28;20092;-52
2022/04/04 13:00:27;;;;;;;1.73;0.70;;;24.30;32.00;;;;;;5025734;28;20497;-51
2022/04/04 13:02:53;;;;;;;1.15;0.50;;;24.30;32.00;;;;;;5027900;28;20029;-51